sensor_id;sensor_type;location;lat;lon;timestamp;P1;durP1;ratioP1;P2;durP2;ratioP2
64403;SDS011;50726;54.912;-8.392;2023-02-13T00:01:29;243.70;;;221.10;;
64403;SDS011;50726;54.912;-8.392;2023-02-13T00:03:55;241.27;;;218.63;;
64403;SDS011;50726;54.912;-8.392;2023-02-13T00:06:20;240.60;;;218.00;;
64403;SDS011;50726;54.912;-8.392;2023-02-13T00:08:46;243.63;;;220.52;;
64403;SDS011;50726;54.912;-8.392;2023-02-13T00:11:13;239.60;;;217.23;;
64403;SDS011;50726;54.912;-8.392;2023-02-13T00:13:39;248.35;;;224.73;;
64403;SDS011;50726;54.912;-8.392;2023-02-13T00:16:05;245.38;;;222.50;;
64403;SDS011;50726;54.912;-8.392;2023-02-13T00:18:35;240.27;;;217.02;;
64403;SDS011;50726;54.912;-8.392;2023-02-13T00:21:10;242.25;;;220.55;;
64403;SDS011;50726;54.912;-8.392;2023-02-13T00:23:36;242.73;;;219.77;;
64403;SDS011;50726;54.912;-8.392;2023-02-13T00:26:07;239.10;;;216.68;;
64403;SDS011;50726;54.912;-8.392;2023-02-13T00:28:38;244.32;;;221.38;;
64403;SDS011;50726;54.912;-8.392;2023-02-13T00:31:12;243.07;;;220.27;;
64403;SDS011;50726;54.912;-8.392;2023-02-13T00:33:39;241.40;;;218.45;;
64403;SDS011;50726;54.912;-8.392;2023-02-13T00:36:15;239.15;;;216.70;;
64403;SDS011;50726;54.912;-8.392;2023-02-13T00:38:43;241.63;;;219.02;;
64403;SDS011;50726;54.912;-8.392;2023-02-13T00:41:09;236.73;;;213.65;;
64403;SDS011;50726;54.912;-8.392;2023-02-13T00:43:35;240.80;;;217.88;;
64403;SDS011;50726;54.912;-8.392;2023-02-13T00:46:01;241.15;;;218.57;;
64403;SDS011;50726;54.912;-8.392;2023-02-13T00:48:29;234.80;;;212.23;;
64403;SDS011;50726;54.912;-8.392;2023-02-13T00:50:56;233.75;;;210.85;;
64403;SDS011;50726;54.912;-8.392;2023-02-13T00:53:22;236.43;;;213.23;;
64403;SDS011;50726;54.912;-8.392;2023-02-13T00:55:49;237.27;;;214.27;;
64403;SDS011;50726;54.912;-8.392;2023-02-13T00:58:15;241.02;;;217.43;;
64403;SDS011;50726;54.912;-8.392;2023-02-13T01:00:42;239.75;;;215.90;;
64403;SDS011;50726;54.912;-8.392;2023-02-13T01:03:08;241.07;;;217.80;;
64403;SDS011;50726;54.912;-8.392;2023-02-13T01:05:34;239.90;;;216.68;;
64403;SDS011;50726;54.912;-8.392;2023-02-13T01:08:00;234.95;;;212.07;;
64403;SDS011;50726;54.912;-8.392;2023-02-13T01:10:27;237.77;;;214.80;;
64403;SDS011;50726;54.912;-8.392;2023-02-13T01:12:53;238.70;;;214.65;;
64403;SDS011;50726;54.912;-8.392;2023-02-13T01:15:18;241.50;;;217.65;;
64403;SDS011;50726;54.912;-8.392;2023-02-13T01:17:46;242.15;;;218.60;;
64403;SDS011;50726;54.912;-8.392;2023-02-13T01:20:12;247.68;;;223.77;;
64403;SDS011;50726;54.912;-8.392;2023-02-13T01:22:38;240.80;;;217.38;;
64403;SDS011;50726;54.912;-8.392;2023-02-13T01:25:05;239.68;;;216.02;;
64403;SDS011;50726;54.912;-8.392;2023-02-13T01:27:32;236.68;;;213.27;;
64403;SDS011;50726;54.912;-8.392;2023-02-13T01:29:58;236.70;;;213.45;;
64403;SDS011;50726;54.912;-8.392;2023-02-13T01:32:24;242.68;;;217.98;;
64403;SDS011;50726;54.912;-8.392;2023-02-13T01:34:50;233.90;;;210.15;;
64403;SDS011;50726;54.912;-8.392;2023-02-13T01:37:17;238.75;;;213.88;;
64403;SDS011;50726;54.912;-8.392;2023-02-13T01:39:43;236.75;;;212.60;;
64403;SDS011;50726;54.912;-8.392;2023-02-13T01:42:14;228.27;;;204.45;;
64403;SDS011;50726;54.912;-8.392;2023-02-13T01:44:52;232.15;;;207.65;;
64403;SDS011;50726;54.912;-8.392;2023-02-13T01:47:23;234.20;;;209.70;;
64403;SDS011;50726;54.912;-8.392;2023-02-13T01:50:18;233.10;;;210.10;;
64403;SDS011;50726;54.912;-8.392;2023-02-13T01:54:03;235.30;;;211.63;;
64403;SDS011;50726;54.912;-8.392;2023-02-13T01:56:12;229.63;;;206.88;;
64403;SDS011;50726;54.912;-8.392;2023-02-13T01:58:45;229.38;;;205.55;;
64403;SDS011;50726;54.912;-8.392;2023-02-13T02:01:15;236.35;;;212.00;;
64403;SDS011;50726;54.912;-8.392;2023-02-13T02:03:55;235.88;;;211.32;;
64403;SDS011;50726;54.912;-8.392;2023-02-13T02:06:25;232.82;;;208.70;;
64403;SDS011;50726;54.912;-8.392;2023-02-13T02:08:54;233.98;;;209.52;;
64403;SDS011;50726;54.912;-8.392;2023-02-13T02:11:29;231.35;;;206.80;;
64403;SDS011;50726;54.912;-8.392;2023-02-13T02:14:09;228.88;;;204.52;;
64403;SDS011;50726;54.912;-8.392;2023-02-13T02:16:35;232.43;;;206.35;;
64403;SDS011;50726;54.912;-8.392;2023-02-13T02:19:01;225.90;;;201.73;;
64403;SDS011;50726;54.912;-8.392;2023-02-13T02:24:34;225.52;;;200.98;;
64403;SDS011;50726;54.912;-8.392;2023-02-13T02:40:58;231.32;;;206.20;;
64403;SDS011;50726;54.912;-8.392;2023-02-13T02:47:26;226.65;;;202.52;;
64403;SDS011;50726;54.912;-8.392;2023-02-13T02:55:37;226.98;;;203.23;;
64403;SDS011;50726;54.912;-8.392;2023-02-13T02:58:26;226.18;;;202.20;;
64403;SDS011;50726;54.912;-8.392;2023-02-13T03:01:20;226.52;;;202.82;;
64403;SDS011;50726;54.912;-8.392;2023-02-13T03:04:13;229.30;;;204.80;;
64403;SDS011;50726;54.912;-8.392;2023-02-13T03:07:07;230.23;;;206.50;;
64403;SDS011;50726;54.912;-8.392;2023-02-13T03:09:36;232.25;;;207.35;;
64403;SDS011;50726;54.912;-8.392;2023-02-13T03:12:26;231.57;;;208.18;;
64403;SDS011;50726;54.912;-8.392;2023-02-13T03:15:17;232.88;;;208.93;;
64403;SDS011;50726;54.912;-8.392;2023-02-13T03:17:43;231.70;;;207.45;;
64403;SDS011;50726;54.912;-8.392;2023-02-13T03:20:35;229.90;;;206.38;;
64403;SDS011;50726;54.912;-8.392;2023-02-13T03:32:06;233.38;;;208.43;;
64403;SDS011;50726;54.912;-8.392;2023-02-13T03:34:43;234.20;;;210.15;;
64403;SDS011;50726;54.912;-8.392;2023-02-13T03:37:34;234.57;;;210.90;;
64403;SDS011;50726;54.912;-8.392;2023-02-13T03:43:26;226.88;;;203.93;;
64403;SDS011;50726;54.912;-8.392;2023-02-13T03:45:57;230.70;;;206.73;;
64403;SDS011;50726;54.912;-8.392;2023-02-13T03:48:30;230.55;;;206.98;;
64403;SDS011;50726;54.912;-8.392;2023-02-13T03:51:26;227.82;;;204.00;;
64403;SDS011;50726;54.912;-8.392;2023-02-13T03:54:01;219.75;;;197.13;;
64403;SDS011;50726;54.912;-8.392;2023-02-13T03:56:32;223.18;;;199.50;;
64403;SDS011;50726;54.912;-8.392;2023-02-13T03:59:21;226.18;;;202.88;;
64403;SDS011;50726;54.912;-8.392;2023-02-13T04:01:56;229.75;;;205.75;;
64403;SDS011;50726;54.912;-8.392;2023-02-13T04:04:47;224.23;;;200.93;;
64403;SDS011;50726;54.912;-8.392;2023-02-13T04:07:18;225.15;;;201.52;;
64403;SDS011;50726;54.912;-8.392;2023-02-13T04:10:00;225.93;;;201.95;;
64403;SDS011;50726;54.912;-8.392;2023-02-13T04:17:38;225.20;;;200.77;;
64403;SDS011;50726;54.912;-8.392;2023-02-13T04:20:10;224.07;;;200.48;;
64403;SDS011;50726;54.912;-8.392;2023-02-13T04:22:45;229.50;;;205.43;;
64403;SDS011;50726;54.912;-8.392;2023-02-13T04:25:14;230.35;;;205.95;;
64403;SDS011;50726;54.912;-8.392;2023-02-13T04:27:42;236.73;;;209.02;;
64403;SDS011;50726;54.912;-8.392;2023-02-13T04:30:07;225.55;;;201.52;;
64403;SDS011;50726;54.912;-8.392;2023-02-13T04:32:34;226.68;;;202.02;;
64403;SDS011;50726;54.912;-8.392;2023-02-13T04:34:59;221.60;;;197.50;;
64403;SDS011;50726;54.912;-8.392;2023-02-13T04:37:25;224.50;;;199.60;;
64403;SDS011;50726;54.912;-8.392;2023-02-13T04:39:51;224.50;;;200.88;;
64403;SDS011;50726;54.912;-8.392;2023-02-13T04:42:16;220.02;;;196.65;;
64403;SDS011;50726;54.912;-8.392;2023-02-13T04:44:42;224.40;;;200.55;;
64403;SDS011;50726;54.912;-8.392;2023-02-13T04:47:08;226.27;;;202.15;;
64403;SDS011;50726;54.912;-8.392;2023-02-13T04:49:33;224.82;;;201.32;;
64403;SDS011;50726;54.912;-8.392;2023-02-13T04:51:59;233.65;;;209.43;;
64403;SDS011;50726;54.912;-8.392;2023-02-13T04:54:26;238.07;;;214.15;;
64403;SDS011;50726;54.912;-8.392;2023-02-13T04:56:51;243.52;;;217.57;;
64403;SDS011;50726;54.912;-8.392;2023-02-13T04:59:18;236.05;;;212.27;;
64403;SDS011;50726;54.912;-8.392;2023-02-13T05:01:43;235.40;;;210.05;;
64403;SDS011;50726;54.912;-8.392;2023-02-13T05:04:09;234.40;;;209.45;;
64403;SDS011;50726;54.912;-8.392;2023-02-13T05:06:35;235.15;;;210.43;;
64403;SDS011;50726;54.912;-8.392;2023-02-13T05:09:02;233.48;;;209.48;;
64403;SDS011;50726;54.912;-8.392;2023-02-13T05:11:28;235.30;;;210.40;;
64403;SDS011;50726;54.912;-8.392;2023-02-13T05:13:54;230.98;;;205.77;;
64403;SDS011;50726;54.912;-8.392;2023-02-13T05:16:20;232.20;;;207.57;;
64403;SDS011;50726;54.912;-8.392;2023-02-13T05:18:46;226.82;;;203.50;;
64403;SDS011;50726;54.912;-8.392;2023-02-13T05:21:12;227.95;;;204.07;;
64403;SDS011;50726;54.912;-8.392;2023-02-13T05:23:56;229.10;;;205.65;;
64403;SDS011;50726;54.912;-8.392;2023-02-13T05:26:23;231.48;;;206.95;;
64403;SDS011;50726;54.912;-8.392;2023-02-13T05:28:48;234.88;;;211.45;;
64403;SDS011;50726;54.912;-8.392;2023-02-13T05:31:32;235.80;;;211.38;;
64403;SDS011;50726;54.912;-8.392;2023-02-13T05:33:58;232.77;;;209.32;;
64403;SDS011;50726;54.912;-8.392;2023-02-13T05:36:23;235.85;;;211.60;;
64403;SDS011;50726;54.912;-8.392;2023-02-13T05:38:49;232.40;;;208.93;;
64403;SDS011;50726;54.912;-8.392;2023-02-13T05:41:15;243.88;;;220.43;;
64403;SDS011;50726;54.912;-8.392;2023-02-13T05:43:40;242.27;;;217.65;;
64403;SDS011;50726;54.912;-8.392;2023-02-13T05:46:07;239.23;;;214.63;;
64403;SDS011;50726;54.912;-8.392;2023-02-13T05:48:33;241.40;;;218.43;;
64403;SDS011;50726;54.912;-8.392;2023-02-13T05:51:00;237.18;;;214.00;;
64403;SDS011;50726;54.912;-8.392;2023-02-13T05:53:26;234.77;;;212.00;;
64403;SDS011;50726;54.912;-8.392;2023-02-13T05:55:53;226.45;;;204.50;;
64403;SDS011;50726;54.912;-8.392;2023-02-13T05:58:20;230.25;;;207.93;;
64403;SDS011;50726;54.912;-8.392;2023-02-13T06:00:46;243.25;;;219.68;;
64403;SDS011;50726;54.912;-8.392;2023-02-13T06:03:12;247.80;;;225.25;;
64403;SDS011;50726;54.912;-8.392;2023-02-13T06:05:38;244.55;;;221.00;;
64403;SDS011;50726;54.912;-8.392;2023-02-13T06:08:04;240.02;;;217.60;;
64403;SDS011;50726;54.912;-8.392;2023-02-13T06:10:30;242.77;;;219.43;;
64403;SDS011;50726;54.912;-8.392;2023-02-13T06:12:59;244.13;;;220.02;;
64403;SDS011;50726;54.912;-8.392;2023-02-13T06:15:24;241.90;;;219.70;;
64403;SDS011;50726;54.912;-8.392;2023-02-13T06:17:50;245.43;;;221.88;;
64403;SDS011;50726;54.912;-8.392;2023-02-13T06:20:15;247.25;;;224.77;;
64403;SDS011;50726;54.912;-8.392;2023-02-13T06:22:41;238.15;;;215.52;;
64403;SDS011;50726;54.912;-8.392;2023-02-13T06:25:06;238.43;;;216.15;;
64403;SDS011;50726;54.912;-8.392;2023-02-13T06:27:32;241.48;;;218.43;;
64403;SDS011;50726;54.912;-8.392;2023-02-13T06:29:58;242.65;;;218.65;;
64403;SDS011;50726;54.912;-8.392;2023-02-13T06:32:24;223.80;;;199.65;;
64403;SDS011;50726;54.912;-8.392;2023-02-13T06:34:49;218.20;;;194.65;;
64403;SDS011;50726;54.912;-8.392;2023-02-13T06:37:16;229.27;;;196.15;;
64403;SDS011;50726;54.912;-8.392;2023-02-13T06:39:41;216.15;;;193.50;;
64403;SDS011;50726;54.912;-8.392;2023-02-13T06:42:07;221.90;;;197.48;;
64403;SDS011;50726;54.912;-8.392;2023-02-13T06:44:32;226.32;;;204.27;;
64403;SDS011;50726;54.912;-8.392;2023-02-13T06:46:59;231.27;;;206.88;;
64403;SDS011;50726;54.912;-8.392;2023-02-13T06:49:25;231.82;;;206.50;;
64403;SDS011;50726;54.912;-8.392;2023-02-13T06:51:50;226.88;;;203.65;;
64403;SDS011;50726;54.912;-8.392;2023-02-13T06:54:16;226.65;;;204.23;;
64403;SDS011;50726;54.912;-8.392;2023-02-13T06:56:42;225.38;;;203.13;;
64403;SDS011;50726;54.912;-8.392;2023-02-13T06:59:08;228.27;;;205.25;;
64403;SDS011;50726;54.912;-8.392;2023-02-13T07:01:34;229.00;;;206.38;;
64403;SDS011;50726;54.912;-8.392;2023-02-13T07:03:59;230.48;;;207.82;;
64403;SDS011;50726;54.912;-8.392;2023-02-13T07:06:25;225.88;;;203.77;;
64403;SDS011;50726;54.912;-8.392;2023-02-13T07:08:51;226.82;;;203.50;;
64403;SDS011;50726;54.912;-8.392;2023-02-13T07:11:19;225.68;;;203.48;;
64403;SDS011;50726;54.912;-8.392;2023-02-13T07:13:47;224.15;;;201.02;;
64403;SDS011;50726;54.912;-8.392;2023-02-13T07:16:13;223.10;;;201.05;;
64403;SDS011;50726;54.912;-8.392;2023-02-13T07:18:39;215.60;;;194.80;;
64403;SDS011;50726;54.912;-8.392;2023-02-13T07:21:05;212.45;;;192.05;;
64403;SDS011;50726;54.912;-8.392;2023-02-13T07:23:31;208.55;;;188.35;;
64403;SDS011;50726;54.912;-8.392;2023-02-13T07:25:58;218.02;;;197.43;;
64403;SDS011;50726;54.912;-8.392;2023-02-13T07:28:25;212.52;;;191.95;;
64403;SDS011;50726;54.912;-8.392;2023-02-13T07:30:51;192.68;;;173.02;;
64403;SDS011;50726;54.912;-8.392;2023-02-13T07:33:17;191.55;;;170.95;;
64403;SDS011;50726;54.912;-8.392;2023-02-13T07:35:46;203.05;;;181.57;;
64403;SDS011;50726;54.912;-8.392;2023-02-13T07:38:13;204.98;;;183.02;;
64403;SDS011;50726;54.912;-8.392;2023-02-13T07:40:39;208.98;;;184.98;;
64403;SDS011;50726;54.912;-8.392;2023-02-13T07:43:04;210.05;;;183.70;;
64403;SDS011;50726;54.912;-8.392;2023-02-13T07:45:30;204.00;;;182.40;;
64403;SDS011;50726;54.912;-8.392;2023-02-13T07:47:56;213.65;;;187.32;;
64403;SDS011;50726;54.912;-8.392;2023-02-13T07:50:24;206.75;;;184.57;;
64403;SDS011;50726;54.912;-8.392;2023-02-13T07:52:57;205.32;;;183.45;;
64403;SDS011;50726;54.912;-8.392;2023-02-13T07:55:25;205.60;;;182.93;;
64403;SDS011;50726;54.912;-8.392;2023-02-13T07:57:51;210.65;;;183.98;;
64403;SDS011;50726;54.912;-8.392;2023-02-13T08:00:17;208.27;;;182.75;;
64403;SDS011;50726;54.912;-8.392;2023-02-13T08:02:44;204.30;;;176.88;;
64403;SDS011;50726;54.912;-8.392;2023-02-13T08:05:10;195.38;;;174.05;;
64403;SDS011;50726;54.912;-8.392;2023-02-13T08:07:35;211.23;;;177.90;;
64403;SDS011;50726;54.912;-8.392;2023-02-13T08:10:02;201.68;;;172.73;;
64403;SDS011;50726;54.912;-8.392;2023-02-13T08:12:47;196.23;;;171.70;;
64403;SDS011;50726;54.912;-8.392;2023-02-13T08:15:13;195.75;;;172.95;;
64403;SDS011;50726;54.912;-8.392;2023-02-13T08:17:39;202.80;;;178.77;;
64403;SDS011;50726;54.912;-8.392;2023-02-13T08:20:06;195.75;;;174.63;;
64403;SDS011;50726;54.912;-8.392;2023-02-13T08:22:33;203.85;;;181.60;;
64403;SDS011;50726;54.912;-8.392;2023-02-13T08:25:00;202.82;;;181.38;;
64403;SDS011;50726;54.912;-8.392;2023-02-13T08:27:25;220.88;;;199.23;;
64403;SDS011;50726;54.912;-8.392;2023-02-13T08:29:54;212.07;;;191.45;;
64403;SDS011;50726;54.912;-8.392;2023-02-13T08:32:22;218.30;;;196.18;;
64403;SDS011;50726;54.912;-8.392;2023-02-13T08:34:49;223.75;;;201.18;;
64403;SDS011;50726;54.912;-8.392;2023-02-13T08:37:15;215.93;;;193.77;;
64403;SDS011;50726;54.912;-8.392;2023-02-13T08:39:41;226.20;;;203.45;;
64403;SDS011;50726;54.912;-8.392;2023-02-13T08:42:08;213.80;;;192.32;;
64403;SDS011;50726;54.912;-8.392;2023-02-13T08:50:28;202.75;;;183.60;;
64403;SDS011;50726;54.912;-8.392;2023-02-13T08:56:44;189.02;;;170.02;;
64403;SDS011;50726;54.912;-8.392;2023-02-13T08:59:10;206.27;;;179.40;;
64403;SDS011;50726;54.912;-8.392;2023-02-13T09:01:48;203.23;;;181.70;;
64403;SDS011;50726;54.912;-8.392;2023-02-13T09:04:26;211.20;;;189.20;;
64403;SDS011;50726;54.912;-8.392;2023-02-13T09:07:04;214.52;;;193.90;;
64403;SDS011;50726;54.912;-8.392;2023-02-13T09:09:45;210.07;;;187.45;;
64403;SDS011;50726;54.912;-8.392;2023-02-13T09:12:11;212.00;;;191.35;;
64403;SDS011;50726;54.912;-8.392;2023-02-13T09:14:39;217.20;;;195.63;;
64403;SDS011;50726;54.912;-8.392;2023-02-13T09:17:15;210.95;;;189.68;;
64403;SDS011;50726;54.912;-8.392;2023-02-13T09:20:05;213.70;;;193.05;;
64403;SDS011;50726;54.912;-8.392;2023-02-13T09:22:35;215.55;;;194.23;;
64403;SDS011;50726;54.912;-8.392;2023-02-13T09:25:05;213.32;;;192.52;;
64403;SDS011;50726;54.912;-8.392;2023-02-13T09:27:31;212.63;;;191.18;;
64403;SDS011;50726;54.912;-8.392;2023-02-13T09:29:57;216.30;;;194.80;;
64403;SDS011;50726;54.912;-8.392;2023-02-13T09:32:24;215.70;;;194.27;;
64403;SDS011;50726;54.912;-8.392;2023-02-13T09:34:50;216.77;;;194.75;;
64403;SDS011;50726;54.912;-8.392;2023-02-13T09:37:15;223.00;;;200.88;;
64403;SDS011;50726;54.912;-8.392;2023-02-13T09:39:41;226.35;;;204.40;;
64403;SDS011;50726;54.912;-8.392;2023-02-13T09:42:28;226.07;;;203.27;;
64403;SDS011;50726;54.912;-8.392;2023-02-13T09:45:12;219.80;;;197.70;;
64403;SDS011;50726;54.912;-8.392;2023-02-13T09:47:59;219.50;;;198.23;;
64403;SDS011;50726;54.912;-8.392;2023-02-13T09:50:29;216.90;;;194.35;;
64403;SDS011;50726;54.912;-8.392;2023-02-13T09:52:59;219.73;;;197.85;;
64403;SDS011;50726;54.912;-8.392;2023-02-13T09:55:28;222.45;;;200.52;;
64403;SDS011;50726;54.912;-8.392;2023-02-13T09:58:27;213.43;;;191.65;;
64403;SDS011;50726;54.912;-8.392;2023-02-13T10:01:28;213.00;;;191.00;;
64403;SDS011;50726;54.912;-8.392;2023-02-13T10:04:31;216.32;;;194.80;;
64403;SDS011;50726;54.912;-8.392;2023-02-13T10:09:32;217.98;;;196.50;;
64403;SDS011;50726;54.912;-8.392;2023-02-13T10:12:29;223.65;;;200.70;;
64403;SDS011;50726;54.912;-8.392;2023-02-13T10:18:00;220.95;;;199.32;;
64403;SDS011;50726;54.912;-8.392;2023-02-13T10:20:41;219.85;;;198.23;;
64403;SDS011;50726;54.912;-8.392;2023-02-13T10:28:59;223.40;;;201.48;;
64403;SDS011;50726;54.912;-8.392;2023-02-13T10:31:48;225.98;;;204.25;;
64403;SDS011;50726;54.912;-8.392;2023-02-13T10:34:17;216.07;;;195.10;;
64403;SDS011;50726;54.912;-8.392;2023-02-13T10:36:46;222.82;;;200.63;;
64403;SDS011;50726;54.912;-8.392;2023-02-13T10:39:22;219.77;;;197.48;;
64403;SDS011;50726;54.912;-8.392;2023-02-13T10:41:51;219.07;;;197.05;;
64403;SDS011;50726;54.912;-8.392;2023-02-13T10:47:32;218.95;;;196.50;;
64403;SDS011;50726;54.912;-8.392;2023-02-13T10:53:10;214.85;;;192.43;;
64403;SDS011;50726;54.912;-8.392;2023-02-13T11:01:24;226.10;;;204.15;;
64403;SDS011;50726;54.912;-8.392;2023-02-13T11:04:06;219.20;;;196.30;;
64403;SDS011;50726;54.912;-8.392;2023-02-13T11:06:42;219.80;;;197.07;;
64403;SDS011;50726;54.912;-8.392;2023-02-13T11:09:16;212.43;;;190.15;;
64403;SDS011;50726;54.912;-8.392;2023-02-13T11:11:42;209.98;;;187.57;;
64403;SDS011;50726;54.912;-8.392;2023-02-13T11:19:54;221.85;;;198.00;;
64403;SDS011;50726;54.912;-8.392;2023-02-13T11:24:56;222.57;;;200.38;;
64403;SDS011;50726;54.912;-8.392;2023-02-13T11:27:29;215.77;;;193.82;;
64403;SDS011;50726;54.912;-8.392;2023-02-13T11:30:03;216.85;;;195.07;;
64403;SDS011;50726;54.912;-8.392;2023-02-13T11:33:00;220.10;;;198.02;;
64403;SDS011;50726;54.912;-8.392;2023-02-13T11:35:34;227.07;;;204.80;;
64403;SDS011;50726;54.912;-8.392;2023-02-13T11:40:43;220.85;;;199.50;;
64403;SDS011;50726;54.912;-8.392;2023-02-13T11:43:28;224.77;;;203.60;;
64403;SDS011;50726;54.912;-8.392;2023-02-13T11:46:00;222.10;;;201.23;;
64403;SDS011;50726;54.912;-8.392;2023-02-13T11:48:42;223.70;;;203.00;;
64403;SDS011;50726;54.912;-8.392;2023-02-13T11:51:08;223.80;;;202.20;;
64403;SDS011;50726;54.912;-8.392;2023-02-13T11:53:37;228.95;;;207.45;;
64403;SDS011;50726;54.912;-8.392;2023-02-13T11:56:13;226.88;;;205.25;;
64403;SDS011;50726;54.912;-8.392;2023-02-13T11:58:40;229.93;;;206.88;;
64403;SDS011;50726;54.912;-8.392;2023-02-13T12:09:59;236.95;;;214.90;;
64403;SDS011;50726;54.912;-8.392;2023-02-13T12:12:55;235.15;;;210.98;;
64403;SDS011;50726;54.912;-8.392;2023-02-13T12:15:35;233.85;;;211.98;;
64403;SDS011;50726;54.912;-8.392;2023-02-13T12:23:51;228.55;;;207.02;;
64403;SDS011;50726;54.912;-8.392;2023-02-13T12:39:55;239.80;;;216.87;;
64403;SDS011;50726;54.912;-8.392;2023-02-13T12:42:27;231.00;;;209.75;;
64403;SDS011;50726;54.912;-8.392;2023-02-13T12:45:24;229.75;;;208.90;;
64403;SDS011;50726;54.912;-8.392;2023-02-13T13:13:18;240.75;;;220.20;;
64403;SDS011;50726;54.912;-8.392;2023-02-13T13:15:57;246.57;;;225.48;;
64403;SDS011;50726;54.912;-8.392;2023-02-13T13:23:59;250.55;;;227.93;;
64403;SDS011;50726;54.912;-8.392;2023-02-13T13:26:39;247.98;;;226.52;;
64403;SDS011;50726;54.912;-8.392;2023-02-13T13:29:19;245.52;;;223.70;;
64403;SDS011;50726;54.912;-8.392;2023-02-13T13:32:10;243.48;;;223.15;;
64403;SDS011;50726;54.912;-8.392;2023-02-13T13:34:38;236.50;;;216.80;;
64403;SDS011;50726;54.912;-8.392;2023-02-13T13:37:12;239.57;;;220.18;;
64403;SDS011;50726;54.912;-8.392;2023-02-13T13:39:59;233.80;;;215.10;;
64403;SDS011;50726;54.912;-8.392;2023-02-13T13:42:37;236.40;;;217.50;;
64403;SDS011;50726;54.912;-8.392;2023-02-13T13:51:16;230.73;;;213.00;;
64403;SDS011;50726;54.912;-8.392;2023-02-13T13:56:24;226.07;;;208.30;;
64403;SDS011;50726;54.912;-8.392;2023-02-13T13:58:52;225.38;;;208.23;;
64403;SDS011;50726;54.912;-8.392;2023-02-13T14:01:27;225.95;;;208.18;;
64403;SDS011;50726;54.912;-8.392;2023-02-13T14:07:15;206.68;;;190.18;;
64403;SDS011;50726;54.912;-8.392;2023-02-13T14:09:48;204.80;;;188.48;;
64403;SDS011;50726;54.912;-8.392;2023-02-13T14:14:55;189.88;;;174.70;;
64403;SDS011;50726;54.912;-8.392;2023-02-13T14:36:46;130.20;;;119.47;;
64403;SDS011;50726;54.912;-8.392;2023-02-13T14:44:42;137.85;;;126.57;;
64403;SDS011;50726;54.912;-8.392;2023-02-13T14:47:13;136.85;;;125.72;;
64403;SDS011;50726;54.912;-8.392;2023-02-13T14:49:46;129.90;;;119.68;;
64403;SDS011;50726;54.912;-8.392;2023-02-13T14:52:19;131.25;;;120.55;;
64403;SDS011;50726;54.912;-8.392;2023-02-13T14:55:27;132.00;;;121.05;;
64403;SDS011;50726;54.912;-8.392;2023-02-13T14:58:03;130.50;;;118.65;;
64403;SDS011;50726;54.912;-8.392;2023-02-13T15:05:58;126.85;;;116.75;;
64403;SDS011;50726;54.912;-8.392;2023-02-13T15:08:33;128.95;;;117.93;;
64403;SDS011;50726;54.912;-8.392;2023-02-13T15:11:06;130.63;;;120.10;;
64403;SDS011;50726;54.912;-8.392;2023-02-13T15:13:51;124.05;;;113.70;;
64403;SDS011;50726;54.912;-8.392;2023-02-13T15:16:17;128.50;;;118.22;;
64403;SDS011;50726;54.912;-8.392;2023-02-13T15:18:44;128.13;;;117.10;;
64403;SDS011;50726;54.912;-8.392;2023-02-13T15:21:20;121.97;;;111.95;;
64403;SDS011;50726;54.912;-8.392;2023-02-13T15:23:54;117.07;;;106.72;;
64403;SDS011;50726;54.912;-8.392;2023-02-13T15:26:24;116.13;;;106.25;;
64403;SDS011;50726;54.912;-8.392;2023-02-13T15:29:00;120.95;;;111.43;;
64403;SDS011;50726;54.912;-8.392;2023-02-13T15:31:31;117.78;;;108.47;;
64403;SDS011;50726;54.912;-8.392;2023-02-13T15:33:57;120.82;;;111.13;;
64403;SDS011;50726;54.912;-8.392;2023-02-13T15:36:25;120.85;;;111.03;;
64403;SDS011;50726;54.912;-8.392;2023-02-13T15:39:04;118.82;;;109.60;;
64403;SDS011;50726;54.912;-8.392;2023-02-13T15:41:38;116.55;;;107.47;;
64403;SDS011;50726;54.912;-8.392;2023-02-13T15:44:12;117.85;;;108.22;;
64403;SDS011;50726;54.912;-8.392;2023-02-13T15:46:45;115.85;;;106.25;;
64403;SDS011;50726;54.912;-8.392;2023-02-13T15:49:14;120.40;;;110.50;;
64403;SDS011;50726;54.912;-8.392;2023-02-13T15:51:43;122.90;;;112.63;;
64403;SDS011;50726;54.912;-8.392;2023-02-13T15:54:26;117.57;;;107.72;;
64403;SDS011;50726;54.912;-8.392;2023-02-13T15:56:56;127.78;;;116.93;;
64403;SDS011;50726;54.912;-8.392;2023-02-13T15:59:25;129.80;;;119.45;;
64403;SDS011;50726;54.912;-8.392;2023-02-13T16:01:56;129.57;;;118.07;;
64403;SDS011;50726;54.912;-8.392;2023-02-13T16:04:24;131.55;;;121.32;;
64403;SDS011;50726;54.912;-8.392;2023-02-13T16:06:51;137.93;;;126.82;;
64403;SDS011;50726;54.912;-8.392;2023-02-13T16:09:21;132.65;;;122.68;;
64403;SDS011;50726;54.912;-8.392;2023-02-13T16:11:49;140.57;;;129.45;;
64403;SDS011;50726;54.912;-8.392;2023-02-13T16:14:23;143.23;;;131.60;;
64403;SDS011;50726;54.912;-8.392;2023-02-13T16:16:59;149.35;;;137.63;;
64403;SDS011;50726;54.912;-8.392;2023-02-13T16:19:32;143.57;;;131.63;;
64403;SDS011;50726;54.912;-8.392;2023-02-13T16:24:51;146.27;;;134.68;;
64403;SDS011;50726;54.912;-8.392;2023-02-13T16:27:25;144.90;;;134.07;;
64403;SDS011;50726;54.912;-8.392;2023-02-13T16:29:59;152.75;;;139.95;;
64403;SDS011;50726;54.912;-8.392;2023-02-13T16:32:30;153.25;;;140.93;;
64403;SDS011;50726;54.912;-8.392;2023-02-13T16:37:47;151.10;;;138.73;;
64403;SDS011;50726;54.912;-8.392;2023-02-13T16:40:36;147.98;;;135.73;;
64403;SDS011;50726;54.912;-8.392;2023-02-13T16:51:29;140.80;;;129.82;;
64403;SDS011;50726;54.912;-8.392;2023-02-13T16:54:00;145.85;;;133.98;;
64403;SDS011;50726;54.912;-8.392;2023-02-13T16:56:35;142.00;;;130.88;;
64403;SDS011;50726;54.912;-8.392;2023-02-13T16:59:13;152.02;;;139.52;;
64403;SDS011;50726;54.912;-8.392;2023-02-13T17:02:14;139.90;;;129.60;;
64403;SDS011;50726;54.912;-8.392;2023-02-13T17:04:48;136.25;;;125.65;;
64403;SDS011;50726;54.912;-8.392;2023-02-13T17:07:28;141.27;;;130.25;;
64403;SDS011;50726;54.912;-8.392;2023-02-13T17:09:59;143.27;;;131.80;;
64403;SDS011;50726;54.912;-8.392;2023-02-13T17:12:27;138.00;;;127.47;;
64403;SDS011;50726;54.912;-8.392;2023-02-13T17:14:55;141.95;;;130.95;;
64403;SDS011;50726;54.912;-8.392;2023-02-13T17:19:51;146.75;;;135.68;;
64403;SDS011;50726;54.912;-8.392;2023-02-13T17:22:27;148.73;;;137.27;;
64403;SDS011;50726;54.912;-8.392;2023-02-13T17:24:58;157.40;;;145.55;;
64403;SDS011;50726;54.912;-8.392;2023-02-13T17:27:24;152.90;;;141.07;;
64403;SDS011;50726;54.912;-8.392;2023-02-13T17:29:50;160.52;;;147.93;;
64403;SDS011;50726;54.912;-8.392;2023-02-13T17:32:17;168.73;;;155.88;;
64403;SDS011;50726;54.912;-8.392;2023-02-13T17:34:45;176.13;;;162.60;;
64403;SDS011;50726;54.912;-8.392;2023-02-13T17:37:15;180.73;;;166.73;;